createdAt,value
2017-02-10T00:00:23.350Z,0
2017-02-10T00:01:23.443Z,0
2017-02-10T00:02:23.530Z,0
2017-02-10T00:03:23.412Z,0
2017-02-10T00:04:23.388Z,0
2017-02-10T00:05:23.373Z,0
2017-02-10T00:06:23.381Z,0
2017-02-10T00:07:23.395Z,0
2017-02-10T00:08:23.411Z,0
2017-02-10T00:09:23.407Z,0
2017-02-10T00:10:23.398Z,0
2017-02-10T00:11:23.401Z,0
2017-02-10T00:12:23.375Z,0
2017-02-10T00:13:23.473Z,0
2017-02-10T00:14:23.373Z,0
2017-02-10T00:15:23.438Z,0
2017-02-10T00:16:23.485Z,0
2017-02-10T00:17:23.382Z,0
2017-02-10T00:18:23.376Z,0
2017-02-10T00:19:23.379Z,0
2017-02-10T00:20:23.388Z,0
2017-02-10T00:21:23.367Z,0
2017-02-10T00:22:23.387Z,0
2017-02-10T00:23:23.379Z,0
2017-02-10T00:24:23.396Z,0
2017-02-10T00:25:23.463Z,0
2017-02-10T00:26:23.420Z,0
2017-02-10T00:27:23.477Z,0
2017-02-10T00:28:23.437Z,0
2017-02-10T00:29:23.434Z,0
2017-02-10T00:30:23.454Z,0
2017-02-10T00:31:23.408Z,0
2017-02-10T00:32:23.436Z,0
2017-02-10T00:33:23.471Z,0
2017-02-10T00:34:23.437Z,0
2017-02-10T00:35:23.428Z,0
2017-02-10T00:36:23.479Z,0
2017-02-10T00:37:23.426Z,0
2017-02-10T00:38:23.465Z,0
2017-02-10T00:39:23.478Z,0
2017-02-10T00:40:23.406Z,0
2017-02-10T00:41:23.437Z,0
2017-02-10T00:42:23.489Z,0
2017-02-10T00:43:23.461Z,0
2017-02-10T00:44:23.428Z,0
2017-02-10T00:45:23.436Z,0
2017-02-10T00:46:23.386Z,0
2017-02-10T00:47:23.446Z,0
2017-02-10T00:48:23.420Z,0
2017-02-10T00:49:23.390Z,0
2017-02-10T00:50:23.401Z,0
2017-02-10T00:51:23.405Z,0
2017-02-10T00:52:23.423Z,0
2017-02-10T00:53:23.409Z,0
2017-02-10T00:54:23.401Z,0
2017-02-10T00:55:23.383Z,0
2017-02-10T00:56:23.534Z,0
2017-02-10T00:57:23.462Z,0
2017-02-10T00:58:23.527Z,0
2017-02-10T00:59:23.421Z,0
2017-02-10T01:00:23.421Z,0
2017-02-10T01:01:23.423Z,0
2017-02-10T01:02:23.419Z,0
2017-02-10T01:03:23.435Z,0
2017-02-10T01:04:23.453Z,0
2017-02-10T01:05:23.419Z,0
2017-02-10T01:06:23.400Z,0
2017-02-10T01:07:23.455Z,0
2017-02-10T01:08:23.406Z,0
2017-02-10T01:09:23.430Z,0
2017-02-10T01:10:23.412Z,0
2017-02-10T01:11:23.435Z,0
2017-02-10T01:12:23.416Z,0
2017-02-10T01:13:23.425Z,0
2017-02-10T01:14:23.450Z,0
2017-02-10T01:15:23.437Z,0
2017-02-10T01:16:23.469Z,0
2017-02-10T01:17:23.435Z,0
2017-02-10T01:18:23.464Z,0
2017-02-10T01:19:23.426Z,0
2017-02-10T01:20:23.517Z,0
2017-02-10T01:21:23.469Z,0
2017-02-10T01:22:23.491Z,0
2017-02-10T01:23:23.471Z,0
2017-02-10T01:24:23.449Z,0
2017-02-10T01:25:23.474Z,0
2017-02-10T01:26:23.493Z,0
2017-02-10T01:27:23.496Z,0
2017-02-10T01:28:23.443Z,0
2017-02-10T01:29:23.439Z,0
2017-02-10T01:30:23.431Z,0
2017-02-10T01:31:23.443Z,0
2017-02-10T01:32:23.419Z,0
2017-02-10T01:33:23.424Z,0
2017-02-10T01:34:23.437Z,0
2017-02-10T01:35:23.440Z,0
2017-02-10T01:36:23.411Z,0
2017-02-10T01:37:23.402Z,0
2017-02-10T01:38:23.489Z,0
2017-02-10T01:39:23.428Z,0
2017-02-10T01:40:23.555Z,0
2017-02-10T01:41:23.449Z,0
2017-02-10T01:42:23.422Z,0
2017-02-10T01:43:23.455Z,0
2017-02-10T01:44:23.518Z,0
2017-02-10T01:45:23.425Z,0
2017-02-10T01:46:23.520Z,0
2017-02-10T01:47:23.426Z,0
2017-02-10T01:48:23.432Z,0
2017-02-10T01:49:23.461Z,0
2017-02-10T01:50:23.443Z,0
2017-02-10T01:51:23.452Z,0
2017-02-10T01:52:23.432Z,0
2017-02-10T01:53:23.492Z,0
2017-02-10T01:54:23.480Z,0
2017-02-10T01:55:23.436Z,0
2017-02-10T01:56:23.436Z,0
2017-02-10T01:57:23.459Z,0
2017-02-10T01:58:23.440Z,0
2017-02-10T01:59:23.449Z,0
2017-02-10T02:00:23.473Z,0
2017-02-10T02:01:23.456Z,0
2017-02-10T02:02:23.481Z,0
2017-02-10T02:03:23.454Z,0
2017-02-10T02:04:23.456Z,0
2017-02-10T02:05:23.445Z,0
2017-02-10T02:06:23.460Z,0
2017-02-10T02:07:23.448Z,0
2017-02-10T02:08:23.430Z,0
2017-02-10T02:09:23.441Z,0
2017-02-10T02:10:23.455Z,0
2017-02-10T02:11:23.442Z,0
2017-02-10T02:12:23.449Z,0
2017-02-10T02:13:23.464Z,0
2017-02-10T02:14:23.462Z,0
2017-02-10T02:15:23.422Z,0
2017-02-10T02:16:23.505Z,0
2017-02-10T02:17:23.444Z,0
2017-02-10T02:18:23.448Z,0
2017-02-10T02:19:23.836Z,0
2017-02-10T02:20:23.454Z,0
2017-02-10T02:21:23.426Z,0
2017-02-10T02:22:23.440Z,0
2017-02-10T02:23:23.482Z,0
2017-02-10T02:24:23.478Z,0
2017-02-10T02:25:23.445Z,0
2017-02-10T02:26:23.428Z,0
2017-02-10T02:27:23.481Z,0
2017-02-10T02:28:23.468Z,0
2017-02-10T02:29:23.451Z,0
2017-02-10T02:30:23.461Z,0
2017-02-10T02:31:23.450Z,0
2017-02-10T02:32:23.445Z,0
2017-02-10T02:33:23.451Z,0
2017-02-10T02:34:23.456Z,0
2017-02-10T02:35:23.479Z,0
2017-02-10T02:36:23.442Z,0
2017-02-10T02:37:23.448Z,0
2017-02-10T02:38:23.468Z,0
2017-02-10T02:39:23.440Z,0
2017-02-10T02:40:23.454Z,0
2017-02-10T02:41:23.473Z,0
2017-02-10T02:42:23.495Z,0
2017-02-10T02:43:23.461Z,0
2017-02-10T02:44:23.478Z,0
2017-02-10T02:45:23.459Z,0
2017-02-10T02:46:23.488Z,0
2017-02-10T02:47:23.450Z,0
2017-02-10T02:48:23.466Z,0
2017-02-10T02:49:23.484Z,0
2017-02-10T02:50:23.462Z,0
2017-02-10T02:51:23.455Z,0
2017-02-10T02:52:23.480Z,0
2017-02-10T02:53:23.461Z,0
2017-02-10T02:54:23.494Z,0
2017-02-10T02:55:23.482Z,0
2017-02-10T02:56:23.501Z,0
2017-02-10T02:57:23.457Z,0
2017-02-10T02:58:23.459Z,0
2017-02-10T02:59:23.460Z,0
2017-02-10T03:00:23.489Z,0
2017-02-10T03:01:23.478Z,0
2017-02-10T03:02:23.526Z,0
2017-02-10T03:03:23.456Z,0
2017-02-10T03:04:23.457Z,0
2017-02-10T03:05:23.485Z,0
2017-02-10T03:06:23.467Z,0
2017-02-10T03:07:23.476Z,0
2017-02-10T03:08:23.488Z,0
2017-02-10T03:09:23.465Z,0
2017-02-10T03:10:23.479Z,0
2017-02-10T03:11:23.466Z,0
2017-02-10T03:12:23.447Z,0
2017-02-10T03:13:23.511Z,0
2017-02-10T03:14:23.505Z,0
2017-02-10T03:15:23.472Z,0
2017-02-10T03:16:23.518Z,0
2017-02-10T03:17:23.480Z,0
2017-02-10T03:18:23.477Z,0
2017-02-10T03:19:23.482Z,0
2017-02-10T03:20:23.473Z,0
2017-02-10T03:21:23.478Z,0
2017-02-10T03:22:23.481Z,0
2017-02-10T03:23:23.516Z,0
2017-02-10T03:24:23.480Z,0
2017-02-10T03:25:23.479Z,0
2017-02-10T03:26:23.493Z,0
2017-02-10T03:27:23.494Z,0
2017-02-10T03:28:23.500Z,0
2017-02-10T03:29:23.481Z,0
2017-02-10T03:30:23.498Z,0
2017-02-10T03:31:23.487Z,0
2017-02-10T03:32:23.492Z,0
2017-02-10T03:33:23.473Z,0
2017-02-10T03:34:23.480Z,0
2017-02-10T03:35:23.489Z,0
2017-02-10T03:36:23.492Z,0
2017-02-10T03:37:23.470Z,0
2017-02-10T03:38:23.462Z,0
2017-02-10T03:39:23.504Z,0
2017-02-10T03:40:23.476Z,0
2017-02-10T03:41:23.502Z,0
2017-02-10T03:42:23.494Z,0
2017-02-10T03:43:23.482Z,0
2017-02-10T03:44:23.487Z,0
2017-02-10T03:45:23.481Z,0
2017-02-10T03:46:23.488Z,0
2017-02-10T03:47:23.503Z,0
2017-02-10T03:48:23.484Z,0
2017-02-10T03:49:23.519Z,0
2017-02-10T03:50:23.506Z,0
2017-02-10T03:51:23.497Z,0
2017-02-10T03:52:23.527Z,0
2017-02-10T03:53:23.513Z,0
2017-02-10T03:54:23.498Z,0
2017-02-10T03:55:23.544Z,0
2017-02-10T03:56:23.491Z,0
2017-02-10T03:57:23.541Z,0
2017-02-10T03:58:23.516Z,0
2017-02-10T03:59:23.505Z,0
2017-02-10T04:00:23.504Z,0
2017-02-10T04:01:23.506Z,0
2017-02-10T04:02:23.504Z,0
2017-02-10T04:03:23.509Z,0
2017-02-10T04:04:23.497Z,0
2017-02-10T04:05:23.509Z,0
2017-02-10T04:06:23.532Z,0
2017-02-10T04:07:23.489Z,0
2017-02-10T04:08:23.527Z,0
2017-02-10T04:09:23.516Z,0
2017-02-10T04:10:23.527Z,0
2017-02-10T04:11:23.509Z,0
2017-02-10T04:12:23.541Z,0
2017-02-10T04:13:23.509Z,0
2017-02-10T04:14:23.521Z,0
2017-02-10T04:15:23.530Z,0
2017-02-10T04:16:23.515Z,0
2017-02-10T04:17:23.500Z,0
2017-02-10T04:18:23.516Z,0
2017-02-10T04:19:23.531Z,0
2017-02-10T04:20:23.511Z,0
2017-02-10T04:21:23.529Z,0
2017-02-10T04:22:23.521Z,0
2017-02-10T04:23:23.517Z,0
2017-02-10T04:24:23.516Z,0
2017-02-10T04:25:23.527Z,0
2017-02-10T04:26:23.570Z,0
2017-02-10T04:27:23.521Z,0
2017-02-10T04:28:23.543Z,0
2017-02-10T04:29:23.539Z,0
2017-02-10T04:30:23.540Z,0
2017-02-10T04:31:23.514Z,0
2017-02-10T04:32:23.532Z,0
2017-02-10T04:33:23.512Z,0
2017-02-10T04:34:23.523Z,0
2017-02-10T04:35:23.543Z,0
2017-02-10T04:36:23.518Z,0
2017-02-10T04:37:23.536Z,0
2017-02-10T04:38:23.523Z,0
2017-02-10T04:39:23.545Z,0
2017-02-10T04:40:23.533Z,0
2017-02-10T04:41:23.541Z,0
2017-02-10T04:42:23.518Z,0
2017-02-10T04:43:23.528Z,0
2017-02-10T04:44:23.545Z,0
2017-02-10T04:45:23.551Z,0
2017-02-10T04:46:23.515Z,0
2017-02-10T04:47:23.544Z,0
2017-02-10T04:48:23.541Z,0
2017-02-10T04:49:23.664Z,0
2017-02-10T04:50:23.538Z,0
2017-02-10T04:51:23.515Z,0
2017-02-10T04:52:23.545Z,0
2017-02-10T04:53:23.524Z,0
2017-02-10T04:54:23.585Z,0
2017-02-10T04:55:23.558Z,0
2017-02-10T04:56:23.552Z,0
2017-02-10T04:57:23.565Z,0
2017-02-10T04:58:23.557Z,0
2017-02-10T04:59:23.527Z,0
2017-02-10T05:00:23.542Z,0
2017-02-10T05:01:23.556Z,0
2017-02-10T05:02:23.523Z,0
2017-02-10T05:03:23.563Z,0
2017-02-10T05:04:23.533Z,0
2017-02-10T05:05:23.555Z,0
2017-02-10T05:06:23.552Z,0
2017-02-10T05:07:23.538Z,0
2017-02-10T05:08:23.543Z,0
2017-02-10T05:09:23.511Z,0
2017-02-10T05:10:23.531Z,0
2017-02-10T05:11:23.553Z,0
2017-02-10T05:12:23.533Z,0
2017-02-10T05:13:23.532Z,0
2017-02-10T05:14:23.531Z,0
2017-02-10T05:15:23.549Z,0
2017-02-10T05:16:23.534Z,0
2017-02-10T05:17:23.555Z,0
2017-02-10T05:18:23.569Z,0
2017-02-10T05:19:23.523Z,0
2017-02-10T05:20:23.568Z,0
2017-02-10T05:21:23.561Z,0
2017-02-10T05:22:23.586Z,0
2017-02-10T05:23:23.646Z,0
2017-02-10T05:24:23.539Z,0
2017-02-10T05:25:23.609Z,0
2017-02-10T05:26:23.554Z,0
2017-02-10T05:27:23.571Z,0
2017-02-10T05:28:23.572Z,0
2017-02-10T05:29:23.574Z,0
2017-02-10T05:30:23.575Z,0
2017-02-10T05:31:23.552Z,0
2017-02-10T05:32:23.556Z,0
2017-02-10T05:33:23.565Z,0
2017-02-10T05:34:23.538Z,0
2017-02-10T05:35:23.566Z,0
2017-02-10T05:36:23.600Z,0
2017-02-10T05:37:23.561Z,0
2017-02-10T05:38:23.549Z,0
2017-02-10T05:39:23.569Z,0
2017-02-10T05:40:23.558Z,0
2017-02-10T05:41:23.562Z,0
2017-02-10T05:42:23.582Z,0
2017-02-10T05:43:23.562Z,0
2017-02-10T05:44:23.562Z,0
2017-02-10T05:45:23.556Z,0
2017-02-10T05:46:23.600Z,0
2017-02-10T05:47:23.556Z,0
2017-02-10T05:48:23.581Z,0
2017-02-10T05:49:23.559Z,0
2017-02-10T05:50:23.626Z,0
2017-02-10T05:51:23.735Z,0
2017-02-10T05:52:23.601Z,0
2017-02-10T05:53:23.571Z,0
2017-02-10T05:54:23.561Z,0
2017-02-10T05:55:23.571Z,0
2017-02-10T05:56:23.581Z,0
2017-02-10T05:57:23.597Z,0
2017-02-10T05:58:23.648Z,0
2017-02-10T05:59:23.732Z,0
2017-02-10T06:00:23.585Z,0
2017-02-10T06:01:23.638Z,0
2017-02-10T06:02:23.556Z,0
2017-02-10T06:03:23.580Z,0
2017-02-10T06:04:23.645Z,0
2017-02-10T06:05:23.589Z,0
2017-02-10T06:06:23.592Z,0
2017-02-10T06:07:23.610Z,0
2017-02-10T06:08:23.587Z,0
2017-02-10T06:09:23.625Z,0
2017-02-10T06:10:23.574Z,0
2017-02-10T06:11:23.568Z,0
2017-02-10T06:12:23.657Z,0
2017-02-10T06:13:23.573Z,0
2017-02-10T06:14:23.598Z,0
2017-02-10T06:15:23.545Z,0
2017-02-10T06:16:23.574Z,0
2017-02-10T06:17:23.587Z,0
2017-02-10T06:18:23.607Z,0
2017-02-10T06:19:23.600Z,0
2017-02-10T06:20:23.714Z,0
2017-02-10T06:21:23.626Z,0
2017-02-10T06:22:23.693Z,0
2017-02-10T06:23:23.616Z,4
2017-02-10T06:24:23.599Z,4
2017-02-10T06:25:23.580Z,4
2017-02-10T06:26:23.577Z,4
2017-02-10T06:27:23.577Z,0
2017-02-10T06:28:23.668Z,4
2017-02-10T06:29:23.595Z,4
2017-02-10T06:30:23.606Z,4
2017-02-10T06:31:23.606Z,4
2017-02-10T06:32:23.581Z,4
2017-02-10T06:33:23.606Z,8
2017-02-10T06:34:23.598Z,4
2017-02-10T06:35:23.600Z,8
2017-02-10T06:36:23.638Z,8
2017-02-10T06:37:23.596Z,8
2017-02-10T06:38:23.594Z,12
2017-02-10T06:39:23.573Z,8
2017-02-10T06:40:23.633Z,12
2017-02-10T06:41:23.586Z,12
2017-02-10T06:42:23.618Z,16
2017-02-10T06:43:23.590Z,24
2017-02-10T06:44:23.578Z,20
2017-02-10T06:45:24.610Z,28
2017-02-10T06:46:23.612Z,32
2017-02-10T06:47:23.701Z,36
2017-02-10T06:48:23.690Z,40
2017-02-10T06:49:23.666Z,44
2017-02-10T06:50:23.596Z,48
2017-02-10T06:51:23.605Z,48
2017-02-10T06:52:23.604Z,48
2017-02-10T06:53:23.652Z,56
2017-02-10T06:54:23.747Z,60
2017-02-10T06:55:25.200Z,64
2017-02-10T06:56:23.678Z,64
2017-02-10T06:57:23.641Z,72
2017-02-10T06:58:23.618Z,80
2017-02-10T06:59:23.604Z,76
2017-02-10T07:00:23.782Z,100
2017-02-10T07:01:23.796Z,100
2017-02-10T07:02:23.587Z,96
2017-02-10T07:03:23.612Z,100
2017-02-10T07:04:23.637Z,104
2017-02-10T07:05:23.626Z,116
2017-02-10T07:06:23.662Z,128
2017-02-10T07:07:23.619Z,140
2017-02-10T07:08:23.631Z,156
2017-02-10T07:09:23.627Z,180
2017-02-10T07:10:23.670Z,188
2017-02-10T07:11:23.751Z,172
2017-02-10T07:12:23.628Z,176
2017-02-10T07:13:23.614Z,204
2017-02-10T07:14:23.632Z,228
2017-02-10T07:15:23.664Z,240
2017-02-10T07:16:23.639Z,256
2017-02-10T07:17:23.717Z,284
2017-02-10T07:18:23.677Z,300
2017-02-10T07:19:23.842Z,296
2017-02-10T07:20:23.680Z,312
2017-02-10T07:21:23.711Z,304
2017-02-10T07:22:23.760Z,292
2017-02-10T07:23:24.006Z,312
2017-02-10T07:24:24.264Z,356
2017-02-10T07:25:23.674Z,364
2017-02-10T07:26:23.697Z,408
2017-02-10T07:27:23.637Z,436
2017-02-10T07:28:23.696Z,432
2017-02-10T07:29:23.753Z,476
2017-02-10T07:30:23.623Z,528
2017-02-10T07:31:23.688Z,540
2017-02-10T07:32:23.624Z,536
2017-02-10T07:33:23.988Z,532
2017-02-10T07:34:23.664Z,560
2017-02-10T07:35:23.648Z,596
2017-02-10T07:36:23.832Z,628
2017-02-10T07:37:24.558Z,628
2017-02-10T07:38:23.632Z,620
2017-02-10T07:39:23.659Z,652
2017-02-10T07:40:23.701Z,668
2017-02-10T07:41:23.619Z,716
2017-02-10T07:42:23.804Z,732
2017-02-10T07:43:23.762Z,752
2017-02-10T07:44:24.184Z,800
2017-02-10T07:45:23.831Z,836
2017-02-10T07:46:23.619Z,868
2017-02-10T07:47:23.752Z,868
2017-02-10T07:48:23.620Z,852
2017-02-10T07:49:23.657Z,840
2017-02-10T07:50:23.721Z,852
2017-02-10T07:51:23.906Z,868
2017-02-10T07:52:23.684Z,900
2017-02-10T07:53:23.623Z,932
2017-02-10T07:54:23.662Z,948
2017-02-10T07:55:23.652Z,976
2017-02-10T07:56:23.703Z,980
2017-02-10T07:57:23.674Z,972
2017-02-10T07:58:23.702Z,1000
2017-02-10T07:59:23.645Z,1028
2017-02-10T08:00:23.660Z,1076
2017-02-10T08:01:23.858Z,1100
2017-02-10T08:02:24.109Z,1136
2017-02-10T08:03:23.623Z,1168
2017-02-10T08:04:23.877Z,1192
2017-02-10T08:05:23.698Z,1268
2017-02-10T08:06:23.658Z,1316
2017-02-10T08:07:23.836Z,1356
2017-02-10T08:08:23.777Z,1404
2017-02-10T08:09:23.959Z,1432
2017-02-10T08:10:23.803Z,1472
2017-02-10T08:11:23.738Z,1468
2017-02-10T08:12:23.973Z,1460
2017-02-10T08:13:23.723Z,1460
2017-02-10T08:14:23.655Z,1520
2017-02-10T08:15:23.700Z,1552
2017-02-10T08:16:23.635Z,1612
2017-02-10T08:17:23.705Z,1680
2017-02-10T08:18:23.633Z,1680
2017-02-10T08:19:23.665Z,1724
2017-02-10T08:20:23.729Z,1780
2017-02-10T08:21:23.664Z,1688
2017-02-10T08:22:23.753Z,1688
2017-02-10T08:23:23.671Z,1764
2017-02-10T08:24:23.656Z,1796
2017-02-10T08:25:23.679Z,1740
2017-02-10T08:26:23.676Z,1696
2017-02-10T08:27:23.670Z,1684
2017-02-10T08:28:23.745Z,1704
2017-02-10T08:29:23.643Z,1692
2017-02-10T08:30:23.684Z,1700
2017-02-10T08:31:23.681Z,1716
2017-02-10T08:32:23.646Z,1732
2017-02-10T08:33:23.667Z,1688
2017-02-10T08:34:23.723Z,1692
2017-02-10T08:35:23.732Z,1820
2017-02-10T08:36:23.668Z,1908
2017-02-10T08:37:23.691Z,1928
2017-02-10T08:38:23.659Z,1976
2017-02-10T08:39:24.318Z,2028
2017-02-10T08:40:24.819Z,1916
2017-02-10T08:41:23.686Z,1868
2017-02-10T08:42:23.703Z,1836
2017-02-10T08:43:23.718Z,1860
2017-02-10T08:44:23.681Z,2036
2017-02-10T08:45:23.693Z,2220
2017-02-10T08:46:23.691Z,2096
2017-02-10T08:47:23.890Z,2144
2017-02-10T08:48:23.683Z,2072
2017-02-10T08:49:23.666Z,2036
2017-02-10T08:50:24.015Z,2200
2017-02-10T08:51:23.655Z,2256
2017-02-10T08:52:23.696Z,2292
2017-02-10T08:53:23.753Z,2440
2017-02-10T08:54:23.646Z,2440
2017-02-10T08:55:23.671Z,2308
2017-02-10T08:56:23.673Z,2284
2017-02-10T08:57:23.670Z,2388
2017-02-10T08:58:23.665Z,2644
2017-02-10T08:59:23.668Z,2736
2017-02-10T09:00:23.681Z,2836
2017-02-10T09:01:23.805Z,2716
2017-02-10T09:02:23.755Z,2532
2017-02-10T09:03:23.662Z,2772
2017-02-10T09:04:23.695Z,2788
2017-02-10T09:05:23.734Z,2548
2017-02-10T09:06:23.701Z,2620
2017-02-10T09:07:23.704Z,2892
2017-02-10T09:08:23.682Z,3004
2017-02-10T09:09:23.775Z,3296
2017-02-10T09:10:23.678Z,3484
2017-02-10T09:11:23.674Z,3688
2017-02-10T09:12:23.697Z,3684
2017-02-10T09:13:23.731Z,3632
2017-02-10T09:14:23.677Z,3264
2017-02-10T09:15:23.653Z,3108
2017-02-10T09:16:23.676Z,3028
2017-02-10T09:17:23.741Z,2616
2017-02-10T09:18:23.704Z,2452
2017-02-10T09:19:23.666Z,2420
2017-02-10T09:20:23.725Z,2236
2017-02-10T09:21:23.728Z,2128
2017-02-10T09:22:23.691Z,2100
2017-02-10T09:23:23.686Z,2416
2017-02-10T09:24:24.003Z,2516
2017-02-10T09:25:23.693Z,2540
2017-02-10T09:26:23.961Z,2196
2017-02-10T09:27:23.708Z,2168
2017-02-10T09:28:23.726Z,2352
2017-02-10T09:29:23.689Z,2152
2017-02-10T09:30:23.682Z,2036
2017-02-10T09:31:23.807Z,1964
2017-02-10T09:32:23.751Z,1940
2017-02-10T09:33:23.766Z,1964
2017-02-10T09:34:23.745Z,2040
2017-02-10T09:35:23.704Z,2084
2017-02-10T09:36:23.765Z,2252
2017-02-10T09:37:23.668Z,2488
2017-02-10T09:38:23.693Z,2680
2017-02-10T09:39:23.795Z,2712
2017-02-10T09:40:27.256Z,2804
2017-02-10T09:41:23.788Z,3040
2017-02-10T09:42:23.723Z,3020
2017-02-10T09:43:23.711Z,2876
2017-02-10T09:44:23.707Z,2956
2017-02-10T09:45:23.850Z,3188
2017-02-10T09:46:23.743Z,3452
2017-02-10T09:47:23.944Z,3696
2017-02-10T09:48:23.748Z,3672
2017-02-10T09:49:23.797Z,3452
2017-02-10T09:50:23.755Z,3236
2017-02-10T09:51:23.746Z,3256
2017-02-10T09:52:23.727Z,3044
2017-02-10T09:53:23.730Z,2744
2017-02-10T09:54:23.711Z,2492
2017-02-10T09:55:23.741Z,2492
2017-02-10T09:56:23.721Z,2528
2017-02-10T09:57:28.926Z,3056
2017-02-10T09:58:27.506Z,3488
2017-02-10T09:59:27.644Z,3528
2017-02-10T10:00:28.306Z,3348
2017-02-10T10:01:28.146Z,3340
2017-02-10T10:02:27.085Z,3804
2017-02-10T10:03:27.986Z,3864
2017-02-10T10:04:27.238Z,3496
2017-02-10T10:05:27.283Z,3212
2017-02-10T10:06:28.205Z,2920
2017-02-10T10:07:27.440Z,2788
2017-02-10T10:08:27.806Z,2720
2017-02-10T10:09:28.151Z,2764
2017-02-10T10:10:28.310Z,2620
2017-02-10T10:11:27.486Z,2416
2017-02-10T10:12:27.980Z,2356
2017-02-10T10:13:29.627Z,2444
2017-02-10T10:14:28.786Z,2496
2017-02-10T10:15:27.769Z,2612
2017-02-10T10:16:28.126Z,2568
2017-02-10T10:17:27.720Z,2516
2017-02-10T10:18:27.509Z,2608
2017-02-10T10:19:28.623Z,2832
2017-02-10T10:20:28.904Z,2836
2017-02-10T10:21:27.888Z,2884
2017-02-10T10:22:28.035Z,2948
2017-02-10T10:23:26.815Z,2940
2017-02-10T10:24:27.846Z,2740
2017-02-10T10:25:26.921Z,2844
2017-02-10T10:26:27.605Z,2732
2017-02-10T10:27:28.739Z,2560
2017-02-10T10:28:28.104Z,2416
2017-02-10T10:29:27.709Z,2452
2017-02-10T10:30:27.646Z,2508
2017-02-10T10:31:29.897Z,2804
2017-02-10T10:32:27.547Z,2976
2017-02-10T10:33:26.300Z,2892
2017-02-10T10:34:25.159Z,2904
2017-02-10T10:35:28.327Z,2772
2017-02-10T10:36:31.994Z,2760
2017-02-10T10:37:27.762Z,2840
2017-02-10T10:38:32.139Z,3064
2017-02-10T10:39:28.546Z,3424
2017-02-10T10:40:27.982Z,3512
2017-02-10T10:41:27.343Z,3716
2017-02-10T10:42:26.955Z,4028
2017-02-10T10:43:27.887Z,4028
2017-02-10T10:44:27.594Z,3640
2017-02-10T10:45:28.366Z,3356
2017-02-10T10:46:29.584Z,3068
2017-02-10T10:47:28.947Z,3168
2017-02-10T10:48:27.851Z,3044
2017-02-10T10:49:27.174Z,2976
2017-02-10T10:50:27.160Z,2948
2017-02-10T10:51:28.431Z,2988
2017-02-10T10:52:29.470Z,3108
2017-02-10T10:53:28.419Z,3164
2017-02-10T10:54:27.654Z,3228
2017-02-10T10:55:28.417Z,3460
2017-02-10T10:56:31.493Z,3440
2017-02-10T10:57:27.808Z,3316
2017-02-10T10:58:28.649Z,3360
2017-02-10T10:59:27.555Z,3340
2017-02-10T11:00:28.619Z,3316
2017-02-10T11:01:28.010Z,3432
2017-02-10T11:02:24.858Z,3500
2017-02-10T11:03:27.684Z,3384
2017-02-10T11:04:28.455Z,3188
2017-02-10T11:05:29.732Z,3104
2017-02-10T11:06:26.701Z,3124
2017-02-10T11:07:27.952Z,3276
2017-02-10T11:08:28.989Z,3356
2017-02-10T11:09:29.609Z,3396
2017-02-10T11:10:30.668Z,3360
2017-02-10T11:11:25.498Z,3240
2017-02-10T11:12:23.864Z,3176
2017-02-10T11:13:24.252Z,3280
2017-02-10T11:14:24.009Z,3392
2017-02-10T11:15:23.995Z,3372
2017-02-10T11:16:24.997Z,3468
2017-02-10T11:17:23.758Z,3536
2017-02-10T11:18:23.797Z,3572
2017-02-10T11:19:24.188Z,3476
2017-02-10T11:20:23.792Z,3484
2017-02-10T11:21:23.774Z,3536
2017-02-10T11:22:23.941Z,3504
2017-02-10T11:23:23.862Z,3592
2017-02-10T11:24:24.553Z,3632
2017-02-10T11:25:25.193Z,3632
2017-02-10T11:26:23.959Z,3624
2017-02-10T11:27:23.798Z,3616
2017-02-10T11:28:24.614Z,3636
2017-02-10T11:29:23.788Z,3692
2017-02-10T11:30:24.746Z,3736
2017-02-10T11:31:23.784Z,3748
2017-02-10T11:32:23.800Z,3884
2017-02-10T11:33:23.783Z,4048
2017-02-10T11:34:25.419Z,4060
2017-02-10T11:35:23.947Z,4208
2017-02-10T11:36:23.793Z,4332
2017-02-10T11:37:23.954Z,4328
2017-02-10T11:38:23.821Z,4296
2017-02-10T11:39:23.833Z,4356
2017-02-10T11:40:23.948Z,4324
2017-02-10T11:41:23.780Z,4180
2017-02-10T11:42:24.681Z,4080
2017-02-10T11:43:23.997Z,4096
2017-02-10T11:44:23.982Z,4012
2017-02-10T11:45:23.812Z,3880
2017-02-10T11:46:23.779Z,3824
2017-02-10T11:47:23.896Z,3740
2017-02-10T11:48:24.095Z,3656
2017-02-10T11:49:24.523Z,3532
2017-02-10T11:50:25.077Z,3396
2017-02-10T11:51:23.903Z,3376
2017-02-10T11:52:23.806Z,3492
2017-02-10T11:53:23.781Z,3644
2017-02-10T11:54:23.776Z,3692
2017-02-10T11:55:23.801Z,3640
2017-02-10T11:56:23.807Z,3516
2017-02-10T11:57:23.916Z,3380
2017-02-10T11:58:23.801Z,3384
2017-02-10T11:59:24.171Z,3396
2017-02-10T12:00:23.930Z,3292
2017-02-10T12:01:23.801Z,3256
2017-02-10T12:02:23.788Z,3424
2017-02-10T12:03:23.778Z,3560
2017-02-10T12:04:23.834Z,3556
2017-02-10T12:05:23.783Z,3540
2017-02-10T12:06:23.785Z,3440
2017-02-10T12:07:24.759Z,3376
2017-02-10T12:08:23.841Z,3352
2017-02-10T12:09:23.789Z,3356
2017-02-10T12:10:23.775Z,3392
2017-02-10T12:11:23.807Z,3480
2017-02-10T12:12:23.817Z,3608
2017-02-10T12:13:23.804Z,3780
2017-02-10T12:14:23.811Z,4024
2017-02-10T12:15:23.783Z,4256
2017-02-10T12:16:23.793Z,4352
2017-02-10T12:17:23.860Z,4148
2017-02-10T12:18:23.812Z,3836
2017-02-10T12:19:23.802Z,3664
2017-02-10T12:20:23.806Z,3556
2017-02-10T12:21:23.792Z,3432
2017-02-10T12:22:23.812Z,3356
2017-02-10T12:23:23.792Z,3344
2017-02-10T12:24:24.027Z,3300
2017-02-10T12:25:23.794Z,3152
2017-02-10T12:26:23.784Z,3068
2017-02-10T12:27:23.839Z,3096
2017-02-10T12:28:23.805Z,3196
2017-02-10T12:29:23.796Z,3304
2017-02-10T12:30:23.799Z,3340
2017-02-10T12:31:23.797Z,3360
2017-02-10T12:32:24.273Z,3472
2017-02-10T12:33:23.809Z,3572
2017-02-10T12:34:23.812Z,3548
2017-02-10T12:35:23.787Z,3564
2017-02-10T12:36:23.818Z,3544
2017-02-10T12:37:23.835Z,3380
2017-02-10T12:38:23.822Z,3240
2017-02-10T12:39:23.851Z,3228
2017-02-10T12:40:23.824Z,3168
2017-02-10T12:41:23.819Z,3152
2017-02-10T12:42:23.801Z,3148
2017-02-10T12:43:23.811Z,3156
2017-02-10T12:44:23.806Z,3164
2017-02-10T12:45:23.836Z,3108
2017-02-10T12:46:23.839Z,3048
2017-02-10T12:47:23.796Z,3008
2017-02-10T12:48:23.819Z,2972
2017-02-10T12:49:23.823Z,2972
2017-02-10T12:50:23.840Z,3000
2017-02-10T12:51:23.899Z,3028
2017-02-10T12:52:23.816Z,3036
2017-02-10T12:53:23.804Z,2980
2017-02-10T12:54:23.835Z,3060
2017-02-10T12:55:23.807Z,3072
2017-02-10T12:56:23.835Z,3016
2017-02-10T12:57:23.840Z,2940
2017-02-10T12:58:23.831Z,2888
2017-02-10T12:59:23.806Z,2896
2017-02-10T13:00:23.821Z,2976
2017-02-10T13:01:23.820Z,3060
2017-02-10T13:02:23.810Z,3092
2017-02-10T13:03:23.806Z,3024
2017-02-10T13:04:23.867Z,2900
2017-02-10T13:05:23.819Z,3036
2017-02-10T13:06:23.810Z,3080
2017-02-10T13:07:23.803Z,3080
2017-02-10T13:08:23.806Z,3152
2017-02-10T13:09:23.836Z,3240
2017-02-10T13:10:23.856Z,3308
2017-02-10T13:11:23.832Z,3228
2017-02-10T13:12:23.829Z,3204
2017-02-10T13:13:23.848Z,3260
2017-02-10T13:14:23.830Z,3308
2017-02-10T13:15:23.814Z,3212
2017-02-10T13:16:23.837Z,2960
2017-02-10T13:17:23.848Z,3020
2017-02-10T13:18:23.854Z,3132
2017-02-10T13:19:23.810Z,3116
2017-02-10T13:20:23.823Z,2928
2017-02-10T13:21:23.851Z,2936
2017-02-10T13:22:23.822Z,2972
2017-02-10T13:23:23.840Z,2936
2017-02-10T13:24:23.823Z,3048
2017-02-10T13:25:23.885Z,3132
2017-02-10T13:26:23.841Z,3116
2017-02-10T13:27:23.845Z,2920
2017-02-10T13:28:23.851Z,2840
2017-02-10T13:29:23.862Z,2740
2017-02-10T13:30:23.855Z,2600
2017-02-10T13:31:23.869Z,2692
2017-02-10T13:32:23.840Z,2816
2017-02-10T13:33:23.848Z,2832
2017-02-10T13:34:23.849Z,2812
2017-02-10T13:35:23.830Z,2788
2017-02-10T13:36:23.863Z,2684
2017-02-10T13:37:23.838Z,2592
2017-02-10T13:38:23.828Z,2568
2017-02-10T13:39:23.840Z,2556
2017-02-10T13:40:23.857Z,2532
2017-02-10T13:41:23.842Z,2544
2017-02-10T13:42:23.889Z,2584
2017-02-10T13:43:23.889Z,2584
2017-02-10T13:44:23.862Z,2576
2017-02-10T13:45:23.843Z,2596
2017-02-10T13:46:23.847Z,2608
2017-02-10T13:47:23.850Z,2572
2017-02-10T13:48:23.843Z,2516
2017-02-10T13:49:23.863Z,2440
2017-02-10T13:50:23.843Z,2396
2017-02-10T13:51:23.843Z,2368
2017-02-10T13:52:23.834Z,2352
2017-02-10T13:53:23.864Z,2300
2017-02-10T13:54:23.843Z,2240
2017-02-10T13:55:23.833Z,2212
2017-02-10T13:56:23.897Z,2220
2017-02-10T13:57:23.867Z,2236
2017-02-10T13:58:23.880Z,2236
2017-02-10T13:59:23.840Z,2216
2017-02-10T14:00:23.848Z,2220
2017-02-10T14:01:23.842Z,2236